PDT,Max TemperatureF,Mean TemperatureF,Min TemperatureF,Max Dew PointF,MeanDew PointF,Min DewpointF,Max Humidity, Mean Humidity, Min Humidity, Max Sea Level PressureIn, Mean Sea Level PressureIn, Min Sea Level PressureIn, Max VisibilityMiles, Mean VisibilityMiles, Min VisibilityMiles, Max Wind SpeedMPH, Mean Wind SpeedMPH, Max Gust SpeedMPH,PrecipitationIn, CloudCover, Events, WindDirDegrees
2013-8-1,90,73,57,36,22,5,44,17,4,30.05,29.94,29.88,10,10,10,25,6,31,0.00,1,,292
2013-8-2,88,66,46,30,22,16,41,19,7,30.06,29.94,29.87,10,10,10,10,4,,0.00,1,,321
2013-8-3,91,72,53,30,25,19,33,18,8,30.07,29.92,29.86,10,10,10,9,6,,0.00,1,,277
2013-8-4,96,75,55,37,29,21,37,20,7,30.08,29.94,29.86,10,10,10,8,5,,0.00,1,,230
2013-8-5,96,75,57,35,28,19,41,20,7,30.07,29.94,29.86,10,10,10,13,4,,0.00,2,,268
2013-8-6,97,78,60,39,30,20,32,19,6,30.03,29.91,29.81,10,10,10,10,6,,0.00,2,,241
2013-8-7,91,76,62,39,31,25,35,20,9,30.01,29.91,29.84,10,10,10,17,8,23,0.00,2,,277
2013-8-8,90,72,55,42,36,27,41,27,15,30.01,29.89,29.80,10,10,10,22,7,26,0.00,3,,272
2013-8-9,90,72,55,45,38,30,55,32,14,29.97,29.87,29.80,10,10,9,25,7,41,0.00,2,,239
2013-8-10,89,72,55,37,31,21,51,25,9,30.08,29.94,29.87,10,10,10,15,6,,0.00,2,,297
2013-8-11,90,70,50,39,31,26,48,24,10,30.08,29.95,29.86,10,10,9,10,4,16,0.00,0,,308
2013-8-12,93,72,54,36,31,24,49,23,9,30.02,29.94,29.87,10,9,8,8,5,,0.00,1,,252
2013-8-13,93,74,55,35,28,17,44,22,7,30.11,29.98,29.90,10,10,7,12,5,16,0.00,1,,270
2013-8-14,98,76,55,35,27,20,39,20,7,30.08,29.95,29.86,10,9,6,12,4,,0.00,0,,261
2013-8-15,98,76,55,34,25,20,38,18,7,30.06,29.95,29.87,10,9,7,12,6,,0.00,0,,221
2013-8-16,96,74,55,29,24,18,34,16,7,30.11,29.99,29.93,10,9,3,13,3,,0.00,4,,300
2013-8-17,96,75,57,39,31,23,31,19,10,30.02,29.96,29.88,10,8,3,7,3,,0.00,2,,242
2013-8-18,100,78,57,44,35,27,42,21,10,30.09,29.95,29.88,10,10,10,24,6,29,0.00,1,,204
2013-8-19,95,83,73,49,45,40,37,29,17,30.12,30.00,29.91,10,10,10,20,7,32,0.00,5,Rain,198
2013-8-20,98,80,64,60,48,36,79,40,12,30.15,29.96,29.83,10,9,1,38,9,54,0.02,4,Rain-Thunderstorm,191
2013-8-21,90,74,60,59,51,40,87,49,19,30.08,29.97,29.89,10,10,4,21,5,28,0.00,4,Rain,213
2013-8-22,93,76,62,53,44,32,68,37,14,30.06,29.92,29.83,10,7,1,20,7,24,0.00,5,,263
2013-8-23,89,70,53,39,34,27,54,28,11,30.00,29.87,29.77,6,3,2,12,4,,0.00,8,,290
2013-8-24,88,70,53,36,31,23,42,25,9,29.93,29.84,29.76,7,3,1,15,5,,0.00,8,,233
2013-8-25,88,68,50,39,34,28,54,27,12,30.02,29.92,29.84,10,4,1,16,5,23,0.00,7,,295
2013-8-26,90,71,53,46,37,30,55,31,13,30.07,29.94,29.86,10,6,2,13,4,18,0.00,5,,241
2013-8-27,91,72,55,61,46,34,81,45,20,30.02,29.89,29.79,10,8,2,28,6,48,0.09,3,Rain-Thunderstorm,208
2013-8-28,91,78,64,57,50,42,73,43,18,30.00,29.91,29.84,10,7,1,15,8,,0.00,5,,229
2013-8-29,93,75,57,49,41,34,67,33,12,30.14,30.03,29.95,7,3,2,12,4,,0.00,7,,298
2013-8-30,95,74,55,41,36,28,58,29,10,30.17,30.03,29.94,8,6,3,12,4,,0.00,7,,328
2013-8-31,96,76,57,40,32,26,42,22,9,30.12,29.96,29.87,10,9,7,10,4,,0.00,1,,207